createdAt,value
2017-12-01T00:01:39.695Z,22.40
2017-12-01T00:04:08.479Z,22.40
2017-12-01T00:06:37.317Z,22.40
2017-12-01T00:09:05.739Z,22.40
2017-12-01T00:11:33.787Z,22.40
2017-12-01T00:14:01.836Z,22.40
2017-12-01T00:16:30.011Z,22.30
2017-12-01T00:18:58.080Z,22.30
2017-12-01T00:21:26.139Z,22.20
2017-12-01T00:23:54.266Z,22.20
2017-12-01T00:26:22.365Z,22.10
2017-12-01T00:28:51.147Z,22.00
2017-12-01T00:31:19.282Z,22.00
2017-12-01T00:33:47.323Z,21.90
2017-12-01T00:36:15.363Z,21.80
2017-12-01T00:38:43.663Z,21.80
2017-12-01T00:41:12.474Z,21.70
2017-12-01T00:43:40.518Z,21.70
2017-12-01T00:46:09.439Z,21.90
2017-12-01T00:48:37.494Z,21.90
2017-12-01T00:51:06.299Z,21.80
2017-12-01T00:53:34.479Z,21.80
2017-12-01T00:56:02.519Z,21.70
2017-12-01T00:58:31.422Z,21.80
2017-12-01T01:01:00.521Z,21.70
2017-12-01T01:03:28.671Z,21.70
2017-12-01T01:05:57.462Z,21.70
2017-12-01T01:08:25.718Z,21.70
2017-12-01T01:10:53.807Z,21.70
2017-12-01T01:13:21.826Z,21.70
2017-12-01T01:15:49.975Z,21.70
2017-12-01T01:18:18.879Z,21.60
2017-12-01T01:20:46.966Z,21.60
2017-12-01T01:23:15.338Z,21.60
2017-12-01T01:25:43.395Z,21.60
2017-12-01T01:28:12.195Z,21.60
2017-12-01T01:30:40.389Z,21.60
2017-12-01T01:33:08.437Z,21.60
2017-12-01T01:35:37.212Z,21.50
2017-12-01T01:38:06.164Z,21.50
2017-12-01T01:40:34.403Z,21.50
2017-12-01T01:43:02.591Z,21.50
2017-12-01T01:45:31.015Z,21.50
2017-12-01T01:47:59.168Z,21.30
2017-12-01T01:50:27.443Z,21.40
2017-12-01T01:52:55.787Z,21.40
2017-12-01T01:55:24.020Z,21.40
2017-12-01T01:57:52.187Z,21.40
2017-12-01T02:00:20.552Z,21.30
2017-12-01T02:02:48.651Z,21.30
2017-12-01T02:05:16.878Z,21.30
2017-12-01T02:07:45.134Z,21.30
2017-12-01T02:10:14.015Z,21.20
2017-12-01T02:12:42.975Z,21.20
2017-12-01T02:15:11.271Z,21.20
2017-12-01T02:17:39.539Z,21.20
2017-12-01T02:20:07.855Z,21.20
2017-12-01T02:22:36.771Z,21.10
2017-12-01T02:25:05.071Z,21.10
2017-12-01T02:27:33.376Z,21.10
2017-12-01T02:30:01.771Z,21.10
2017-12-01T02:32:30.798Z,21.10
2017-12-01T02:34:59.095Z,21.10
2017-12-01T02:37:27.498Z,21.00
2017-12-01T02:39:55.845Z,21.00
2017-12-01T02:42:24.252Z,21.00
2017-12-01T02:44:52.676Z,21.00
2017-12-01T02:47:21.687Z,21.00
2017-12-01T02:49:50.063Z,21.00
2017-12-01T02:52:19.199Z,21.00
2017-12-01T02:54:50.363Z,21.00
2017-12-01T02:57:18.682Z,21.00
2017-12-01T02:59:47.746Z,21.00
2017-12-01T03:02:16.335Z,21.00
2017-12-01T03:04:44.560Z,21.10
2017-12-01T03:07:12.774Z,21.10
2017-12-01T03:09:41.112Z,21.10
2017-12-01T03:12:09.427Z,21.20
2017-12-01T03:14:37.719Z,21.30
2017-12-01T03:17:06.055Z,21.40
2017-12-01T03:19:34.375Z,21.40
2017-12-01T03:22:02.703Z,21.40
2017-12-01T03:24:31.023Z,21.50
2017-12-01T03:26:59.335Z,21.60
2017-12-01T03:29:28.571Z,22.00
2017-12-01T03:31:56.899Z,22.00
2017-12-01T03:34:25.211Z,22.60
2017-12-01T03:36:53.628Z,23.50
2017-12-01T03:39:21.931Z,24.60
2017-12-01T03:41:50.251Z,25.50
2017-12-01T03:44:18.905Z,26.20
2017-12-01T03:46:47.191Z,26.50
2017-12-01T03:49:16.218Z,27.40
2017-12-01T03:51:44.616Z,27.30
2017-12-01T03:54:12.906Z,27.60
2017-12-01T03:56:41.179Z,27.60
2017-12-01T03:59:09.636Z,26.60
2017-12-01T04:01:37.916Z,25.60
2017-12-01T04:04:06.236Z,24.90
2017-12-01T04:06:34.647Z,24.60
2017-12-01T04:09:03.731Z,24.20
2017-12-01T04:11:32.072Z,24.10
2017-12-01T04:14:00.475Z,24.10
2017-12-01T04:16:28.791Z,24.00
2017-12-01T04:18:57.817Z,23.90
2017-12-01T04:21:26.247Z,23.80
2017-12-01T04:23:54.556Z,23.60
2017-12-01T04:26:23.743Z,23.70
2017-12-01T04:28:52.891Z,23.90
2017-12-01T04:31:21.186Z,23.90
2017-12-01T04:33:49.623Z,23.80
2017-12-01T04:36:18.030Z,23.90
2017-12-01T04:38:47.102Z,24.10
2017-12-01T04:41:15.449Z,24.20
2017-12-01T04:43:44.763Z,24.60
2017-12-01T04:46:13.803Z,24.80
2017-12-01T04:48:45.159Z,24.80
2017-12-01T04:51:13.689Z,24.80
2017-12-01T04:53:42.763Z,24.60
2017-12-01T04:56:11.060Z,24.60
2017-12-01T04:58:43.797Z,24.60
2017-12-01T05:01:12.360Z,24.60
2017-12-01T05:03:40.670Z,24.60
2017-12-01T05:06:09.152Z,24.50
2017-12-01T05:08:37.467Z,24.70
2017-12-01T05:11:06.535Z,24.80
2017-12-01T05:13:34.955Z,24.80
2017-12-01T05:16:03.201Z,24.80
2017-12-01T05:18:31.499Z,24.90
2017-12-01T05:21:00.656Z,25.10
2017-12-01T05:23:28.956Z,25.00
2017-12-01T05:25:57.264Z,25.20
2017-12-01T05:28:25.704Z,25.30
2017-12-01T05:30:53.995Z,25.40
2017-12-01T05:33:22.332Z,25.50
2017-12-01T05:35:50.963Z,25.50
2017-12-01T05:38:19.364Z,25.60
2017-12-01T05:40:48.399Z,26.00
2017-12-01T05:43:16.805Z,26.00
2017-12-01T05:45:45.111Z,26.00
2017-12-01T05:48:14.135Z,26.20
2017-12-01T05:50:42.547Z,26.20
2017-12-01T05:53:10.868Z,26.40
2017-12-01T05:55:39.894Z,26.20
2017-12-01T05:58:08.299Z,26.20
2017-12-01T06:00:36.611Z,26.30
2017-12-01T06:03:05.667Z,26.60
2017-12-01T06:05:34.112Z,26.50
2017-12-01T06:08:02.407Z,26.50
2017-12-01T06:10:31.584Z,26.40
2017-12-01T06:13:00.032Z,26.60
2017-12-01T06:15:28.302Z,26.60
2017-12-01T06:17:56.583Z,26.90
2017-12-01T06:20:25.020Z,26.90
2017-12-01T06:22:53.327Z,27.00
2017-12-01T06:25:21.662Z,27.10
2017-12-01T06:27:50.075Z,27.20
2017-12-01T06:30:18.384Z,27.20
2017-12-01T06:32:46.695Z,27.30
2017-12-01T06:35:15.851Z,27.40
2017-12-01T06:37:44.300Z,27.40
2017-12-01T06:40:12.574Z,27.40
2017-12-01T06:42:40.971Z,27.50
2017-12-01T06:45:09.251Z,27.60
2017-12-01T06:47:37.351Z,27.60
2017-12-01T06:50:06.416Z,27.70
2017-12-01T06:52:34.594Z,27.70
2017-12-01T06:55:02.762Z,27.80
2017-12-01T06:57:31.179Z,27.90
2017-12-01T06:59:59.415Z,28.00
2017-12-01T07:02:27.511Z,27.90
2017-12-01T07:04:55.815Z,28.10
2017-12-01T07:07:23.917Z,28.10
2017-12-01T07:09:51.948Z,28.20
2017-12-01T07:12:20.163Z,28.50
2017-12-01T07:14:48.926Z,28.60
2017-12-01T07:17:16.943Z,28.60
2017-12-01T07:19:45.102Z,28.80
2017-12-01T07:22:13.891Z,28.60
2017-12-01T07:24:42.855Z,28.80
2017-12-01T07:27:11.804Z,28.90
2017-12-01T07:29:39.845Z,28.80
2017-12-01T07:32:08.648Z,29.30
2017-12-01T07:34:36.831Z,29.30
2017-12-01T07:37:04.851Z,29.30
2017-12-01T07:39:33.166Z,29.20
2017-12-01T07:42:02.232Z,29.60
2017-12-01T07:44:35.827Z,29.50
2017-12-01T07:47:04.023Z,29.50
2017-12-01T07:49:32.951Z,29.60
2017-12-01T07:52:01.127Z,29.60
2017-12-01T07:54:29.283Z,29.70
2017-12-01T07:56:57.490Z,29.80
2017-12-01T07:59:25.659Z,29.90
2017-12-01T08:01:53.827Z,29.90
2017-12-01T08:04:22.027Z,29.70
2017-12-01T08:06:50.212Z,29.80
2017-12-01T08:09:18.407Z,29.80
2017-12-01T08:11:46.572Z,30.00
2017-12-01T08:14:14.735Z,29.90
2017-12-01T08:16:54.459Z,30.00
2017-12-01T08:19:22.618Z,30.00
2017-12-01T08:22:15.215Z,30.00
2017-12-01T08:24:54.872Z,30.10
2017-12-01T08:27:23.180Z,30.10
2017-12-01T08:29:52.066Z,30.20
2017-12-01T08:32:20.975Z,30.10
2017-12-01T08:34:49.159Z,30.10
2017-12-01T08:37:17.188Z,30.10
2017-12-01T08:39:45.338Z,30.30
2017-12-01T08:42:13.575Z,30.20
2017-12-01T08:44:41.663Z,30.20
2017-12-01T08:47:09.899Z,30.30
2017-12-01T08:49:38.823Z,30.20
2017-12-01T08:52:06.896Z,30.10
2017-12-01T08:54:34.947Z,30.30
2017-12-01T08:57:03.870Z,30.20
2017-12-01T08:59:31.931Z,30.20
2017-12-01T09:01:59.962Z,30.40
2017-12-01T09:04:28.159Z,30.40
2017-12-01T09:06:56.947Z,30.40
2017-12-01T09:09:25.723Z,30.30
2017-12-01T09:11:54.615Z,30.40
2017-12-01T09:14:23.423Z,30.30
2017-12-01T09:16:52.311Z,30.30
2017-12-01T09:19:21.252Z,30.30
2017-12-01T09:21:49.410Z,30.40
2017-12-01T09:24:17.475Z,30.20
2017-12-01T09:26:45.738Z,30.30
2017-12-01T09:29:13.811Z,30.20
2017-12-01T09:31:41.840Z,30.20
2017-12-01T09:34:10.072Z,30.30
2017-12-01T09:36:38.115Z,30.20
2017-12-01T09:39:06.931Z,30.10
2017-12-01T09:41:35.399Z,30.20
2017-12-01T09:44:04.340Z,30.20
2017-12-01T09:46:32.407Z,30.20
2017-12-01T09:49:00.595Z,30.20
2017-12-01T09:51:28.626Z,30.10
2017-12-01T09:53:56.692Z,30.00
2017-12-01T09:56:25.016Z,29.90
2017-12-01T09:58:53.058Z,30.00
2017-12-01T10:01:21.097Z,30.10
2017-12-01T10:03:50.252Z,30.10
2017-12-01T10:06:18.279Z,30.10
2017-12-01T10:08:47.084Z,30.00
2017-12-01T10:11:15.267Z,30.00
2017-12-01T10:13:43.423Z,30.00
2017-12-01T10:16:11.455Z,29.90
2017-12-01T10:18:39.587Z,29.90
2017-12-01T10:21:07.659Z,29.90
2017-12-01T10:23:35.731Z,29.90
2017-12-01T10:26:03.912Z,29.90
2017-12-01T10:28:31.968Z,29.90
2017-12-01T10:31:00.046Z,29.80
2017-12-01T10:33:28.207Z,29.80
2017-12-01T10:35:56.242Z,29.80
2017-12-01T10:38:24.319Z,29.80
2017-12-01T10:40:52.622Z,29.70
2017-12-01T10:43:21.864Z,29.80
2017-12-01T10:45:49.922Z,29.80
2017-12-01T10:48:18.131Z,29.70
2017-12-01T10:50:46.234Z,29.70
2017-12-01T10:53:14.999Z,29.60
2017-12-01T10:55:43.215Z,29.60
2017-12-01T10:58:12.032Z,29.50
2017-12-01T11:00:40.247Z,29.50
2017-12-01T11:03:08.443Z,29.60
2017-12-01T11:05:37.236Z,29.60
2017-12-01T11:08:06.032Z,29.50
2017-12-01T11:10:34.911Z,29.50
2017-12-01T11:13:03.683Z,29.40
2017-12-01T11:15:31.698Z,29.40
2017-12-01T11:17:59.841Z,29.30
2017-12-01T11:20:28.041Z,29.30
2017-12-01T11:22:56.823Z,29.30
2017-12-01T11:25:25.726Z,29.20
2017-12-01T11:27:54.495Z,29.10
2017-12-01T11:30:22.523Z,29.10
2017-12-01T11:32:50.698Z,29.20
2017-12-01T11:35:18.755Z,29.10
2017-12-01T11:37:46.811Z,29.10
2017-12-01T11:40:15.009Z,29.00
2017-12-01T11:42:43.034Z,29.00
2017-12-01T11:45:11.969Z,28.90
2017-12-01T11:47:40.143Z,28.90
2017-12-01T11:50:08.175Z,28.90
2017-12-01T11:52:37.011Z,28.80
2017-12-01T11:55:05.236Z,28.80
2017-12-01T11:57:33.384Z,28.70
2017-12-01T12:00:01.459Z,28.70
2017-12-01T12:02:29.654Z,28.70
2017-12-01T12:04:57.763Z,28.60
2017-12-01T12:07:25.831Z,28.70
2017-12-01T12:09:54.812Z,28.60
2017-12-01T12:12:23.868Z,28.50
2017-12-01T12:14:51.955Z,28.50
2017-12-01T12:17:20.263Z,28.50
2017-12-01T12:19:49.082Z,28.50
2017-12-01T12:22:17.174Z,28.50
2017-12-01T12:24:45.555Z,28.30
2017-12-01T12:27:13.799Z,28.30
2017-12-01T12:29:41.883Z,28.30
2017-12-01T12:32:10.116Z,28.20
2017-12-01T12:34:38.380Z,28.20
2017-12-01T12:37:06.512Z,28.20
2017-12-01T12:39:34.779Z,28.10
2017-12-01T12:42:02.900Z,28.10
2017-12-01T12:44:31.143Z,28.20
2017-12-01T12:46:59.639Z,28.20
2017-12-01T12:49:27.867Z,28.10
2017-12-01T12:51:56.892Z,27.90
2017-12-01T12:54:25.239Z,27.90
2017-12-01T12:56:54.395Z,27.80
2017-12-01T12:59:22.655Z,27.80
2017-12-01T13:01:51.018Z,27.80
2017-12-01T13:04:19.392Z,27.80
2017-12-01T13:06:48.504Z,27.60
2017-12-01T13:09:16.915Z,27.60
2017-12-01T13:11:45.059Z,27.60
2017-12-01T13:14:13.299Z,27.60
2017-12-01T13:16:41.555Z,27.60
2017-12-01T13:19:09.755Z,27.50
2017-12-01T13:21:38.678Z,27.40
2017-12-01T13:24:07.123Z,27.40
2017-12-01T13:26:35.343Z,27.40
2017-12-01T13:29:03.648Z,27.40
2017-12-01T13:31:31.947Z,27.40
2017-12-01T13:34:00.239Z,27.40
2017-12-01T13:36:28.455Z,27.40
2017-12-01T13:38:56.735Z,27.30
2017-12-01T13:41:24.978Z,27.30
2017-12-01T13:43:53.840Z,27.20
2017-12-01T13:46:22.338Z,27.20
2017-12-01T13:48:50.708Z,27.20
2017-12-01T13:51:18.909Z,27.20
2017-12-01T13:53:47.949Z,27.10
2017-12-01T13:56:16.229Z,27.10
2017-12-01T13:58:44.317Z,27.20
2017-12-01T14:01:12.595Z,27.20
2017-12-01T14:03:40.776Z,27.20
2017-12-01T14:06:08.831Z,27.20
2017-12-01T14:08:36.978Z,27.20
2017-12-01T14:11:05.017Z,27.10
2017-12-01T14:13:33.031Z,27.10
2017-12-01T14:16:01.212Z,27.20
2017-12-01T14:18:29.275Z,27.10
2017-12-01T14:20:57.351Z,27.20
2017-12-01T14:23:25.499Z,27.10
2017-12-01T14:25:54.261Z,27.10
2017-12-01T14:28:22.291Z,27.00
2017-12-01T14:30:50.423Z,27.10
2017-12-01T14:33:19.207Z,27.00
2017-12-01T14:35:47.255Z,27.00
2017-12-01T14:38:15.403Z,27.00
2017-12-01T14:40:44.255Z,27.00
2017-12-01T14:43:13.487Z,26.90
2017-12-01T14:45:41.627Z,26.80
2017-12-01T14:48:11.035Z,26.80
2017-12-01T14:50:39.923Z,26.80
2017-12-01T14:53:08.807Z,26.80
2017-12-01T14:55:36.860Z,26.80
2017-12-01T14:58:04.909Z,26.90
2017-12-01T15:00:33.115Z,26.90
2017-12-01T15:03:01.118Z,26.90
2017-12-01T15:05:29.891Z,26.80
2017-12-01T15:07:58.781Z,26.80
2017-12-01T15:10:26.815Z,26.80
2017-12-01T15:12:54.879Z,26.80
2017-12-01T15:15:23.231Z,26.70
2017-12-01T15:17:51.238Z,26.70
2017-12-01T15:20:19.288Z,26.70
2017-12-01T15:22:47.446Z,26.70
2017-12-01T15:25:16.218Z,26.80
2017-12-01T15:27:44.971Z,26.80
2017-12-01T15:30:13.114Z,26.70
2017-12-01T15:32:41.311Z,26.80
2017-12-01T15:35:09.331Z,26.70
2017-12-01T15:37:38.419Z,26.70
2017-12-01T15:40:06.571Z,26.70
2017-12-01T15:42:34.819Z,26.70
2017-12-01T15:45:03.157Z,26.70
2017-12-01T15:47:32.047Z,26.70
2017-12-01T15:50:00.227Z,26.70
2017-12-01T15:52:29.283Z,26.70
2017-12-01T15:54:57.399Z,26.70
2017-12-01T15:57:26.159Z,26.70
2017-12-01T15:59:54.484Z,26.60
2017-12-01T16:02:22.859Z,26.60
2017-12-01T16:04:51.940Z,26.60
2017-12-01T16:07:20.871Z,26.60
2017-12-01T16:09:49.216Z,26.60
2017-12-01T16:12:18.331Z,26.60
2017-12-01T16:14:46.791Z,26.60
2017-12-01T16:17:15.893Z,26.60
2017-12-01T16:19:44.892Z,26.60
2017-12-01T16:22:14.083Z,26.60
2017-12-01T16:24:42.935Z,26.60
2017-12-01T16:27:11.196Z,26.60
2017-12-01T16:29:39.387Z,26.50
2017-12-01T16:32:07.627Z,26.50
2017-12-01T16:34:35.771Z,26.50
2017-12-01T16:37:04.474Z,26.50
2017-12-01T16:39:33.427Z,26.50
2017-12-01T16:42:02.318Z,26.40
2017-12-01T16:44:30.499Z,26.50
2017-12-01T16:46:58.643Z,26.40
2017-12-01T16:49:26.716Z,26.40
2017-12-01T16:51:55.070Z,26.40
2017-12-01T16:54:24.216Z,26.40
2017-12-01T16:56:52.520Z,26.40
2017-12-01T16:59:20.920Z,26.50
2017-12-01T17:01:49.936Z,26.40
2017-12-01T17:04:18.255Z,26.40
2017-12-01T17:06:46.659Z,26.50
2017-12-01T17:09:14.994Z,26.40
2017-12-01T17:11:43.296Z,26.40
2017-12-01T17:14:11.691Z,26.40
2017-12-01T17:16:39.990Z,26.40
2017-12-01T17:19:09.013Z,26.40
2017-12-01T17:21:37.488Z,26.40
2017-12-01T17:24:05.714Z,26.50
2017-12-01T17:26:33.858Z,26.40
2017-12-01T17:29:02.235Z,26.40
2017-12-01T17:31:30.442Z,26.40
2017-12-01T17:33:58.608Z,26.40
2017-12-01T17:36:26.971Z,26.50
2017-12-01T17:38:55.135Z,26.50
2017-12-01T17:41:23.347Z,26.50
2017-12-01T17:43:51.677Z,26.40
2017-12-01T17:46:19.957Z,26.30
2017-12-01T17:48:48.182Z,26.30
2017-12-01T17:51:16.438Z,26.20
2017-12-01T17:53:44.544Z,26.20
2017-12-01T17:56:12.806Z,26.20
2017-12-01T17:58:41.107Z,26.20
2017-12-01T18:01:10.164Z,26.20
2017-12-01T18:03:38.373Z,26.20
2017-12-01T18:06:06.738Z,26.20
2017-12-01T18:08:34.944Z,26.00
2017-12-01T18:11:03.903Z,26.00
2017-12-01T18:13:32.251Z,26.00
2017-12-01T18:16:00.460Z,25.90
2017-12-01T18:18:28.698Z,25.90
2017-12-01T18:20:56.908Z,26.00
2017-12-01T18:23:25.007Z,26.00
2017-12-01T18:25:53.313Z,26.00
2017-12-01T18:28:21.699Z,25.90
2017-12-01T18:30:49.855Z,25.90
2017-12-01T18:33:18.823Z,25.80
2017-12-01T18:35:47.058Z,25.80
2017-12-01T18:38:15.276Z,25.70
2017-12-01T18:40:43.423Z,25.60
2017-12-01T18:43:11.670Z,25.60
2017-12-01T18:45:39.879Z,25.70
2017-12-01T18:48:08.182Z,25.70
2017-12-01T18:50:36.495Z,25.80
2017-12-01T18:53:05.543Z,25.80
2017-12-01T18:55:33.696Z,25.70
2017-12-01T18:58:02.121Z,25.70
2017-12-01T19:00:30.408Z,25.70
2017-12-01T19:02:59.307Z,25.70
2017-12-01T19:05:28.351Z,25.60
2017-12-01T19:07:56.495Z,25.60
2017-12-01T19:10:24.608Z,25.60
2017-12-01T19:12:52.963Z,25.50
2017-12-01T19:15:21.150Z,25.60
2017-12-01T19:17:49.391Z,25.60
2017-12-01T19:20:18.514Z,25.50
2017-12-01T19:22:46.875Z,25.50
2017-12-01T19:25:15.099Z,25.50
2017-12-01T19:27:43.491Z,25.40
2017-12-01T19:30:11.667Z,25.40
2017-12-01T19:32:39.963Z,25.30
2017-12-01T19:35:08.914Z,25.40
2017-12-01T19:37:37.081Z,25.40
2017-12-01T19:40:05.198Z,25.40
2017-12-01T19:42:33.526Z,25.40
2017-12-01T19:45:01.767Z,25.40
2017-12-01T19:47:30.804Z,25.40
2017-12-01T19:49:59.045Z,25.40
2017-12-01T19:52:27.867Z,25.40
2017-12-01T19:54:56.067Z,25.30
2017-12-01T19:57:24.491Z,25.30
2017-12-01T19:59:53.507Z,25.40
2017-12-01T20:02:21.632Z,25.30
2017-12-01T20:04:49.826Z,25.30
2017-12-01T20:07:18.694Z,25.20
2017-12-01T20:09:46.918Z,25.20
2017-12-01T20:12:15.311Z,25.30
2017-12-01T20:14:43.426Z,25.20
2017-12-01T20:17:11.594Z,25.20
2017-12-01T20:19:40.076Z,25.30
2017-12-01T20:22:08.400Z,25.20
2017-12-01T20:24:36.574Z,25.20
2017-12-01T20:27:05.743Z,25.20
2017-12-01T20:29:33.959Z,25.10
2017-12-01T20:32:02.239Z,25.10
2017-12-01T20:34:30.503Z,25.10
2017-12-01T20:36:59.540Z,25.10
2017-12-01T20:39:27.619Z,25.10
2017-12-01T20:41:55.843Z,25.10
2017-12-01T20:44:24.737Z,25.10
2017-12-01T20:46:53.666Z,25.10
2017-12-01T20:49:21.950Z,25.10
2017-12-01T20:51:50.244Z,25.10
2017-12-01T20:54:18.460Z,25.00
2017-12-01T20:56:47.511Z,24.90
2017-12-01T20:59:15.632Z,24.90
2017-12-01T21:01:44.599Z,24.90
2017-12-01T21:04:12.860Z,24.90
2017-12-01T21:06:42.287Z,25.00
2017-12-01T21:09:10.338Z,25.00
2017-12-01T21:11:38.703Z,25.00
2017-12-01T21:14:06.970Z,25.00
2017-12-01T21:16:35.050Z,25.00
2017-12-01T21:19:03.343Z,24.90
2017-12-01T21:21:31.610Z,24.90
2017-12-01T21:23:59.865Z,24.90
2017-12-01T21:26:28.091Z,25.00
2017-12-01T21:28:56.187Z,24.90
2017-12-01T21:31:25.072Z,24.80
2017-12-01T21:33:53.287Z,24.80
2017-12-01T21:36:21.595Z,24.80
2017-12-01T21:38:49.787Z,24.90
2017-12-01T21:41:18.092Z,24.80
2017-12-01T21:43:46.921Z,24.80
2017-12-01T21:46:14.948Z,24.80
2017-12-01T21:48:43.856Z,24.80
2017-12-01T21:51:12.671Z,24.70
2017-12-01T21:53:40.691Z,24.70
2017-12-01T21:56:08.847Z,24.80
2017-12-01T21:58:37.024Z,24.80
2017-12-01T22:01:05.084Z,24.80
2017-12-01T22:03:33.391Z,24.70
2017-12-01T22:06:01.416Z,24.70
2017-12-01T22:08:29.491Z,24.50
2017-12-01T22:10:57.683Z,24.50
2017-12-01T22:13:25.844Z,24.60
2017-12-01T22:15:54.036Z,24.60
2017-12-01T22:18:22.343Z,24.70
2017-12-01T22:20:50.539Z,24.70
2017-12-01T22:23:19.362Z,24.60
2017-12-01T22:25:47.575Z,24.60
2017-12-01T22:28:15.806Z,24.70
2017-12-01T22:30:43.830Z,24.70
2017-12-01T22:33:12.168Z,24.70
2017-12-01T22:35:40.264Z,24.70
2017-12-01T22:38:08.312Z,24.60
2017-12-01T22:40:36.462Z,24.60
2017-12-01T22:43:04.535Z,24.50
2017-12-01T22:45:32.607Z,24.50
2017-12-01T22:48:01.530Z,24.50
2017-12-01T22:50:29.576Z,24.50
2017-12-01T22:52:57.671Z,24.40
2017-12-01T22:55:25.919Z,24.40
2017-12-01T22:57:54.756Z,24.40
2017-12-01T23:00:22.984Z,24.40
2017-12-01T23:02:51.883Z,24.40
2017-12-01T23:05:20.088Z,24.40
2017-12-01T23:07:48.148Z,24.30
2017-12-01T23:10:16.336Z,24.30
2017-12-01T23:12:44.423Z,24.30
2017-12-01T23:15:12.595Z,24.30
2017-12-01T23:17:40.743Z,24.30
2017-12-01T23:20:08.816Z,24.10
2017-12-01T23:22:36.863Z,24.10
2017-12-01T23:25:05.767Z,24.20
2017-12-01T23:27:33.799Z,24.30
2017-12-01T23:30:01.845Z,24.30
2017-12-01T23:32:29.988Z,24.20
2017-12-01T23:34:58.040Z,24.10
2017-12-01T23:37:26.803Z,24.10
2017-12-01T23:39:54.939Z,24.00
2017-12-01T23:42:22.966Z,24.00
2017-12-01T23:44:50.987Z,23.90
2017-12-01T23:47:19.179Z,24.00
2017-12-01T23:49:47.259Z,24.00
2017-12-01T23:52:15.327Z,24.10
2017-12-01T23:54:43.475Z,24.00
2017-12-01T23:57:11.739Z,24.00
2017-12-01T23:59:40.556Z,23.90
